sensor_id;sensor_type;location;lat;lon;timestamp;pressure;altitude;pressure_sealevel;temperature;humidity
32761;BME280;19126;47.472;7.850;2023-03-01T00:00:04;97077.84;;;-1.01;100.00
32761;BME280;19126;47.472;7.850;2023-03-01T00:02:32;97070.50;;;-0.93;100.00
32761;BME280;19126;47.472;7.850;2023-03-01T00:05:08;97070.25;;;-0.89;100.00
32761;BME280;19126;47.472;7.850;2023-03-01T00:07:42;97075.47;;;-0.76;100.00
32761;BME280;19126;47.472;7.850;2023-03-01T00:10:12;97081.66;;;-0.78;100.00
32761;BME280;19126;47.472;7.850;2023-03-01T00:12:42;97066.81;;;-0.89;100.00
32761;BME280;19126;47.472;7.850;2023-03-01T00:15:19;97065.25;;;-0.92;100.00
32761;BME280;19126;47.472;7.850;2023-03-01T00:17:55;97076.41;;;-0.77;100.00
32761;BME280;19126;47.472;7.850;2023-03-01T00:20:28;97060.56;;;-0.70;100.00
32761;BME280;19126;47.472;7.850;2023-03-01T00:23:02;97054.09;;;-0.78;99.09
32761;BME280;19126;47.472;7.850;2023-03-01T00:25:54;97054.03;;;-0.76;99.96
32761;BME280;19126;47.472;7.850;2023-03-01T00:28:38;97042.50;;;-0.70;99.03
32761;BME280;19126;47.472;7.850;2023-03-01T00:31:25;97063.41;;;-0.61;99.17
32761;BME280;19126;47.472;7.850;2023-03-01T00:33:56;97043.59;;;-0.60;98.99
32761;BME280;19126;47.472;7.850;2023-03-01T00:36:32;97062.38;;;-0.58;98.12
32761;BME280;19126;47.472;7.850;2023-03-01T00:39:14;97059.06;;;-0.60;97.37
32761;BME280;19126;47.472;7.850;2023-03-01T00:41:42;97070.56;;;-0.37;97.51
32761;BME280;19126;47.472;7.850;2023-03-01T00:44:10;97054.25;;;-0.37;95.43
32761;BME280;19126;47.472;7.850;2023-03-01T00:46:43;97064.19;;;-0.31;95.00
32761;BME280;19126;47.472;7.850;2023-03-01T00:49:22;97054.34;;;-0.39;94.76
32761;BME280;19126;47.472;7.850;2023-03-01T00:52:06;97055.16;;;-0.38;94.98
32761;BME280;19126;47.472;7.850;2023-03-01T00:54:54;97043.72;;;-0.34;95.36
32761;BME280;19126;47.472;7.850;2023-03-01T00:57:26;97045.50;;;-0.35;95.16
32761;BME280;19126;47.472;7.850;2023-03-01T01:03:01;97042.38;;;-0.40;95.10
32761;BME280;19126;47.472;7.850;2023-03-01T01:05:36;97045.03;;;-0.41;95.68
32761;BME280;19126;47.472;7.850;2023-03-01T01:08:13;97019.03;;;-0.38;95.38
32761;BME280;19126;47.472;7.850;2023-03-01T01:10:59;97019.56;;;-0.33;94.91
32761;BME280;19126;47.472;7.850;2023-03-01T01:14:06;97019.88;;;-0.38;94.50
32761;BME280;19126;47.472;7.850;2023-03-01T01:16:59;97019.75;;;-0.36;95.40
32761;BME280;19126;47.472;7.850;2023-03-01T01:19:36;97031.09;;;-0.24;94.85
32761;BME280;19126;47.472;7.850;2023-03-01T01:22:06;97023.81;;;-0.32;95.32
32761;BME280;19126;47.472;7.850;2023-03-01T01:24:43;97024.06;;;-0.22;95.10
32761;BME280;19126;47.472;7.850;2023-03-01T01:27:42;97018.00;;;-0.21;94.44
32761;BME280;19126;47.472;7.850;2023-03-01T01:30:16;97021.84;;;-0.14;94.06
32761;BME280;19126;47.472;7.850;2023-03-01T01:32:43;97018.81;;;-0.21;93.89
32761;BME280;19126;47.472;7.850;2023-03-01T01:35:15;97011.91;;;-0.20;94.25
32761;BME280;19126;47.472;7.850;2023-03-01T01:37:45;97000.84;;;-0.22;94.21
32761;BME280;19126;47.472;7.850;2023-03-01T01:40:18;97001.22;;;-0.28;94.18
32761;BME280;19126;47.472;7.850;2023-03-01T01:42:51;97004.22;;;-0.22;94.17
32761;BME280;19126;47.472;7.850;2023-03-01T01:45:31;96982.13;;;-0.26;94.81
32761;BME280;19126;47.472;7.850;2023-03-01T01:48:07;96988.00;;;-0.24;95.38
32761;BME280;19126;47.472;7.850;2023-03-01T01:50:40;96986.69;;;-0.17;94.44
32761;BME280;19126;47.472;7.850;2023-03-01T01:53:17;96983.16;;;-0.28;93.71
32761;BME280;19126;47.472;7.850;2023-03-01T01:55:51;96980.78;;;-0.32;94.32
32761;BME280;19126;47.472;7.850;2023-03-01T01:58:23;96980.97;;;-0.35;95.24
32761;BME280;19126;47.472;7.850;2023-03-01T02:00:55;96995.88;;;-0.25;95.46
32761;BME280;19126;47.472;7.850;2023-03-01T02:03:29;96988.22;;;-0.27;95.39
32761;BME280;19126;47.472;7.850;2023-03-01T02:06:10;96987.19;;;-0.24;95.07
32761;BME280;19126;47.472;7.850;2023-03-01T02:08:46;96991.53;;;-0.25;94.97
32761;BME280;19126;47.472;7.850;2023-03-01T02:11:24;96980.47;;;-0.27;94.89
32761;BME280;19126;47.472;7.850;2023-03-01T02:13:56;96974.91;;;-0.21;95.53
32761;BME280;19126;47.472;7.850;2023-03-01T02:16:32;96977.09;;;-0.15;95.17
32761;BME280;19126;47.472;7.850;2023-03-01T02:19:04;96966.03;;;-0.17;93.81
32761;BME280;19126;47.472;7.850;2023-03-01T02:21:42;96954.44;;;-0.24;94.03
32761;BME280;19126;47.472;7.850;2023-03-01T02:24:20;96951.47;;;-0.18;94.49
32761;BME280;19126;47.472;7.850;2023-03-01T02:26:56;96954.91;;;-0.17;93.82
32761;BME280;19126;47.472;7.850;2023-03-01T02:29:26;96951.78;;;-0.22;93.74
32761;BME280;19126;47.472;7.850;2023-03-01T02:31:57;96954.25;;;-0.21;93.72
32761;BME280;19126;47.472;7.850;2023-03-01T02:34:31;96951.66;;;-0.21;93.76
32761;BME280;19126;47.472;7.850;2023-03-01T02:37:01;96945.38;;;-0.17;94.22
32761;BME280;19126;47.472;7.850;2023-03-01T02:39:35;96946.13;;;-0.15;94.01
32761;BME280;19126;47.472;7.850;2023-03-01T02:42:11;96941.88;;;-0.16;94.15
32761;BME280;19126;47.472;7.850;2023-03-01T02:44:41;96955.63;;;-0.15;94.17
32761;BME280;19126;47.472;7.850;2023-03-01T02:47:11;96934.03;;;-0.14;94.06
32761;BME280;19126;47.472;7.850;2023-03-01T02:49:48;96935.91;;;-0.16;94.21
32761;BME280;19126;47.472;7.850;2023-03-01T02:55:11;96928.84;;;-0.27;94.06
32761;BME280;19126;47.472;7.850;2023-03-01T02:57:46;96936.81;;;-0.17;94.12
32761;BME280;19126;47.472;7.850;2023-03-01T03:00:20;96930.50;;;-0.26;94.57
32761;BME280;19126;47.472;7.850;2023-03-01T03:02:50;96930.00;;;-0.18;94.78
32761;BME280;19126;47.472;7.850;2023-03-01T03:05:33;96933.13;;;-0.13;95.13
32761;BME280;19126;47.472;7.850;2023-03-01T03:08:04;96926.69;;;-0.20;94.95
32761;BME280;19126;47.472;7.850;2023-03-01T03:10:35;96928.03;;;-0.15;94.21
32761;BME280;19126;47.472;7.850;2023-03-01T03:13:04;96920.06;;;-0.24;94.45
32761;BME280;19126;47.472;7.850;2023-03-01T03:15:38;96925.66;;;-0.18;94.73
32761;BME280;19126;47.472;7.850;2023-03-01T03:18:09;96923.72;;;-0.14;94.52
32761;BME280;19126;47.472;7.850;2023-03-01T03:20:40;96925.47;;;-0.15;94.22
32761;BME280;19126;47.472;7.850;2023-03-01T03:23:10;96924.53;;;-0.13;94.13
32761;BME280;19126;47.472;7.850;2023-03-01T03:25:42;96918.03;;;-0.19;95.31
32761;BME280;19126;47.472;7.850;2023-03-01T03:28:09;96924.44;;;-0.12;94.79
32761;BME280;19126;47.472;7.850;2023-03-01T03:30:41;96915.53;;;-0.21;94.77
32761;BME280;19126;47.472;7.850;2023-03-01T03:33:09;96912.75;;;-0.18;95.12
32761;BME280;19126;47.472;7.850;2023-03-01T03:35:42;96912.94;;;-0.21;94.95
32761;BME280;19126;47.472;7.850;2023-03-01T03:38:17;96918.63;;;-0.16;94.89
32761;BME280;19126;47.472;7.850;2023-03-01T03:40:55;96920.50;;;-0.18;94.63
32761;BME280;19126;47.472;7.850;2023-03-01T03:43:28;96914.81;;;-0.23;95.08
32761;BME280;19126;47.472;7.850;2023-03-01T03:46:04;96919.16;;;-0.23;94.99
32761;BME280;19126;47.472;7.850;2023-03-01T03:48:44;96926.06;;;-0.24;95.15
32761;BME280;19126;47.472;7.850;2023-03-01T03:51:13;96916.66;;;-0.25;95.82
32761;BME280;19126;47.472;7.850;2023-03-01T03:53:43;96919.97;;;-0.23;96.17
32761;BME280;19126;47.472;7.850;2023-03-01T03:56:15;96905.91;;;-0.32;96.47
32761;BME280;19126;47.472;7.850;2023-03-01T03:58:47;96909.22;;;-0.17;96.25
32761;BME280;19126;47.472;7.850;2023-03-01T04:01:18;96904.38;;;-0.21;95.59
32761;BME280;19126;47.472;7.850;2023-03-01T04:03:48;96901.38;;;-0.28;95.93
32761;BME280;19126;47.472;7.850;2023-03-01T04:06:22;96901.56;;;-0.31;95.82
32761;BME280;19126;47.472;7.850;2023-03-01T04:08:52;96916.44;;;-0.22;96.38
32761;BME280;19126;47.472;7.850;2023-03-01T04:11:29;96906.84;;;-0.20;96.43
32761;BME280;19126;47.472;7.850;2023-03-01T04:14:05;96910.16;;;-0.18;96.54
32761;BME280;19126;47.472;7.850;2023-03-01T04:16:36;96904.28;;;-0.20;96.13
32761;BME280;19126;47.472;7.850;2023-03-01T04:19:03;96894.25;;;-0.24;96.16
32761;BME280;19126;47.472;7.850;2023-03-01T04:21:35;96898.69;;;-0.26;96.48
32761;BME280;19126;47.472;7.850;2023-03-01T04:24:05;96902.81;;;-0.24;96.77
32761;BME280;19126;47.472;7.850;2023-03-01T04:26:35;96882.16;;;-0.37;97.28
32761;BME280;19126;47.472;7.850;2023-03-01T04:29:42;96884.72;;;-0.37;97.77
32761;BME280;19126;47.472;7.850;2023-03-01T04:32:12;96898.69;;;-0.26;97.81
32761;BME280;19126;47.472;7.850;2023-03-01T04:34:42;96889.19;;;-0.26;98.06
32761;BME280;19126;47.472;7.850;2023-03-01T04:37:09;96888.25;;;-0.25;97.81
32761;BME280;19126;47.472;7.850;2023-03-01T04:39:47;96887.25;;;-0.22;97.97
32761;BME280;19126;47.472;7.850;2023-03-01T04:42:26;96885.28;;;-0.19;98.58
32761;BME280;19126;47.472;7.850;2023-03-01T04:45:04;96892.94;;;-0.17;98.26
32761;BME280;19126;47.472;7.850;2023-03-01T04:47:43;96879.91;;;-0.28;98.25
32761;BME280;19126;47.472;7.850;2023-03-01T04:50:18;96879.69;;;-0.25;98.18
32761;BME280;19126;47.472;7.850;2023-03-01T04:52:51;96869.47;;;-0.27;98.28
32761;BME280;19126;47.472;7.850;2023-03-01T04:55:25;96874.72;;;-0.28;98.21
32761;BME280;19126;47.472;7.850;2023-03-01T04:57:58;96890.75;;;-0.23;98.00
32761;BME280;19126;47.472;7.850;2023-03-01T05:00:26;96877.84;;;-0.23;97.94
32761;BME280;19126;47.472;7.850;2023-03-01T05:03:09;96882.28;;;-0.25;98.28
32761;BME280;19126;47.472;7.850;2023-03-01T05:05:45;96875.34;;;-0.25;98.19
32761;BME280;19126;47.472;7.850;2023-03-01T05:08:17;96881.56;;;-0.15;98.37
32761;BME280;19126;47.472;7.850;2023-03-01T05:11:02;96886.94;;;-0.18;98.18
32761;BME280;19126;47.472;7.850;2023-03-01T05:13:42;96879.28;;;-0.19;97.00
32761;BME280;19126;47.472;7.850;2023-03-01T05:16:20;96883.63;;;-0.20;97.84
32761;BME280;19126;47.472;7.850;2023-03-01T05:18:53;96868.72;;;-0.29;97.33
32761;BME280;19126;47.472;7.850;2023-03-01T05:21:25;96857.59;;;-0.30;97.38
32761;BME280;19126;47.472;7.850;2023-03-01T05:23:55;96880.03;;;-0.17;98.68
32761;BME280;19126;47.472;7.850;2023-03-01T05:26:24;96863.28;;;-0.24;97.54
32761;BME280;19126;47.472;7.850;2023-03-01T05:29:01;96859.25;;;-0.28;97.96
32761;BME280;19126;47.472;7.850;2023-03-01T05:31:41;96864.69;;;-0.33;98.68
32761;BME280;19126;47.472;7.850;2023-03-01T05:34:09;96865.63;;;-0.34;98.21
32761;BME280;19126;47.472;7.850;2023-03-01T05:36:38;96853.25;;;-0.29;99.14
32761;BME280;19126;47.472;7.850;2023-03-01T05:39:08;96858.53;;;-0.31;99.48
32761;BME280;19126;47.472;7.850;2023-03-01T05:41:38;96852.94;;;-0.24;99.05
32761;BME280;19126;47.472;7.850;2023-03-01T05:44:06;96857.38;;;-0.26;98.69
32761;BME280;19126;47.472;7.850;2023-03-01T05:46:33;96851.59;;;-0.30;98.71
32761;BME280;19126;47.472;7.850;2023-03-01T05:49:00;96844.16;;;-0.35;99.17
32761;BME280;19126;47.472;7.850;2023-03-01T05:51:29;96845.00;;;-0.21;99.43
32761;BME280;19126;47.472;7.850;2023-03-01T05:53:56;96837.22;;;-0.34;99.07
32761;BME280;19126;47.472;7.850;2023-03-01T05:56:32;96830.94;;;-0.30;99.02
32761;BME280;19126;47.472;7.850;2023-03-01T05:59:04;96828.16;;;-0.40;99.35
32761;BME280;19126;47.472;7.850;2023-03-01T06:01:33;96842.59;;;-0.37;99.76
32761;BME280;19126;47.472;7.850;2023-03-01T06:04:02;96842.50;;;-0.36;99.80
32761;BME280;19126;47.472;7.850;2023-03-01T06:06:35;96830.81;;;-0.41;99.78
32761;BME280;19126;47.472;7.850;2023-03-01T06:09:06;96828.16;;;-0.40;100.00
32761;BME280;19126;47.472;7.850;2023-03-01T06:11:54;96831.06;;;-0.32;100.00
32761;BME280;19126;47.472;7.850;2023-03-01T06:14:22;96823.09;;;-0.28;100.00
32761;BME280;19126;47.472;7.850;2023-03-01T06:16:54;96832.78;;;-0.32;100.00
32761;BME280;19126;47.472;7.850;2023-03-01T06:19:25;96836.22;;;-0.32;100.00
32761;BME280;19126;47.472;7.850;2023-03-01T06:22:00;96828.28;;;-0.28;100.00
32761;BME280;19126;47.472;7.850;2023-03-01T06:24:28;96835.81;;;-0.25;100.00
32761;BME280;19126;47.472;7.850;2023-03-01T06:26:55;96841.47;;;-0.33;100.00
32761;BME280;19126;47.472;7.850;2023-03-01T06:29:24;96837.56;;;-0.26;100.00
32761;BME280;19126;47.472;7.850;2023-03-01T06:31:51;96832.06;;;-0.34;100.00
32761;BME280;19126;47.472;7.850;2023-03-01T06:34:19;96818.16;;;-0.32;100.00
32761;BME280;19126;47.472;7.850;2023-03-01T06:36:48;96836.69;;;-0.39;100.00
32761;BME280;19126;47.472;7.850;2023-03-01T06:39:17;96839.69;;;-0.46;100.00
32761;BME280;19126;47.472;7.850;2023-03-01T06:41:47;96830.09;;;-0.43;100.00
32761;BME280;19126;47.472;7.850;2023-03-01T06:44:15;96829.16;;;-0.42;100.00
32761;BME280;19126;47.472;7.850;2023-03-01T06:46:44;96838.56;;;-0.41;100.00
32761;BME280;19126;47.472;7.850;2023-03-01T06:49:12;96842.38;;;-0.34;100.00
32761;BME280;19126;47.472;7.850;2023-03-01T06:51:41;96840.22;;;-0.40;100.00
32761;BME280;19126;47.472;7.850;2023-03-01T06:54:08;96831.75;;;-0.42;100.00
32761;BME280;19126;47.472;7.850;2023-03-01T06:56:37;96839.00;;;-0.35;100.00
32761;BME280;19126;47.472;7.850;2023-03-01T06:59:05;96844.03;;;-0.33;100.00
32761;BME280;19126;47.472;7.850;2023-03-01T07:01:33;96838.88;;;-0.33;100.00
32761;BME280;19126;47.472;7.850;2023-03-01T07:04:02;96849.00;;;-0.30;100.00
32761;BME280;19126;47.472;7.850;2023-03-01T07:06:34;96839.53;;;-0.30;100.00
32761;BME280;19126;47.472;7.850;2023-03-01T07:09:01;96842.63;;;-0.24;100.00
32761;BME280;19126;47.472;7.850;2023-03-01T07:11:37;96844.47;;;-0.26;100.00
32761;BME280;19126;47.472;7.850;2023-03-01T07:14:07;96844.38;;;-0.25;100.00
32761;BME280;19126;47.472;7.850;2023-03-01T07:16:42;96843.75;;;-0.28;100.00
32761;BME280;19126;47.472;7.850;2023-03-01T07:19:09;96849.84;;;-0.30;100.00
32761;BME280;19126;47.472;7.850;2023-03-01T07:21:37;96854.81;;;-0.26;100.00
32761;BME280;19126;47.472;7.850;2023-03-01T07:24:06;96836.00;;;-0.28;100.00
32761;BME280;19126;47.472;7.850;2023-03-01T07:26:35;96844.56;;;-0.28;100.00
32761;BME280;19126;47.472;7.850;2023-03-01T07:29:03;96843.03;;;-0.31;100.00
32761;BME280;19126;47.472;7.850;2023-03-01T07:31:36;96841.47;;;-0.33;100.00
32761;BME280;19126;47.472;7.850;2023-03-01T07:34:06;96847.75;;;-0.37;100.00
32761;BME280;19126;47.472;7.850;2023-03-01T07:36:33;96835.91;;;-0.27;100.00
32761;BME280;19126;47.472;7.850;2023-03-01T07:39:15;96844.03;;;-0.33;100.00
32761;BME280;19126;47.472;7.850;2023-03-01T07:41:45;96840.13;;;-0.26;100.00
32761;BME280;19126;47.472;7.850;2023-03-01T07:44:14;96836.94;;;-0.30;100.00
32761;BME280;19126;47.472;7.850;2023-03-01T07:46:50;96835.91;;;-0.27;100.00
32761;BME280;19126;47.472;7.850;2023-03-01T07:49:22;96832.31;;;-0.24;100.00
32761;BME280;19126;47.472;7.850;2023-03-01T07:51:49;96831.16;;;-0.20;100.00
32761;BME280;19126;47.472;7.850;2023-03-01T07:54:16;96831.38;;;-0.23;100.00
32761;BME280;19126;47.472;7.850;2023-03-01T07:56:45;96828.88;;;-0.25;100.00
32761;BME280;19126;47.472;7.850;2023-03-01T07:59:27;96818.88;;;-0.30;100.00
32761;BME280;19126;47.472;7.850;2023-03-01T08:01:57;96818.34;;;-0.22;100.00
32761;BME280;19126;47.472;7.850;2023-03-01T08:04:32;96822.69;;;-0.22;100.00
32761;BME280;19126;47.472;7.850;2023-03-01T08:07:06;96818.88;;;-0.17;100.00
32761;BME280;19126;47.472;7.850;2023-03-01T08:09:34;96818.88;;;-0.17;100.00
32761;BME280;19126;47.472;7.850;2023-03-01T08:12:02;96818.06;;;-0.17;100.00
32761;BME280;19126;47.472;7.850;2023-03-01T08:14:30;96813.81;;;-0.18;100.00
32761;BME280;19126;47.472;7.850;2023-03-01T08:17:06;96818.25;;;-0.20;100.00
32761;BME280;19126;47.472;7.850;2023-03-01T08:19:34;96815.34;;;-0.16;100.00
32761;BME280;19126;47.472;7.850;2023-03-01T08:22:02;96826.31;;;-0.12;100.00
32761;BME280;19126;47.472;7.850;2023-03-01T08:24:32;96820.72;;;-0.19;100.00
32761;BME280;19126;47.472;7.850;2023-03-01T08:27:00;96824.88;;;-0.16;100.00
32761;BME280;19126;47.472;7.850;2023-03-01T08:29:33;96809.66;;;-0.21;100.00
32761;BME280;19126;47.472;7.850;2023-03-01T08:32:03;96813.63;;;-0.15;100.00
32761;BME280;19126;47.472;7.850;2023-03-01T08:34:35;96835.59;;;-0.09;100.00
32761;BME280;19126;47.472;7.850;2023-03-01T08:37:03;96818.47;;;-0.10;100.00
32761;BME280;19126;47.472;7.850;2023-03-01T08:39:33;96819.50;;;-0.13;100.00
32761;BME280;19126;47.472;7.850;2023-03-01T08:42:01;96825.69;;;-0.16;100.00
32761;BME280;19126;47.472;7.850;2023-03-01T08:44:30;96816.00;;;-0.12;100.00
32761;BME280;19126;47.472;7.850;2023-03-01T08:46:59;96818.78;;;-0.15;100.00
32761;BME280;19126;47.472;7.850;2023-03-01T08:49:30;96806.88;;;-0.18;100.00
32761;BME280;19126;47.472;7.850;2023-03-01T08:52:10;96812.28;;;-0.08;100.00
32761;BME280;19126;47.472;7.850;2023-03-01T08:54:41;96809.06;;;-0.11;100.00
32761;BME280;19126;47.472;7.850;2023-03-01T08:57:13;96807.53;;;-0.14;100.00
32761;BME280;19126;47.472;7.850;2023-03-01T08:59:43;96809.19;;;-0.13;100.00
32761;BME280;19126;47.472;7.850;2023-03-01T09:02:12;96810.09;;;-0.14;100.00
32761;BME280;19126;47.472;7.850;2023-03-01T09:04:40;96824.97;;;-0.05;100.00
32761;BME280;19126;47.472;7.850;2023-03-01T09:07:13;96800.91;;;-0.05;100.00
32761;BME280;19126;47.472;7.850;2023-03-01T09:09:43;96808.13;;;-0.10;100.00
32761;BME280;19126;47.472;7.850;2023-03-01T09:12:12;96807.00;;;-0.06;100.00
32761;BME280;19126;47.472;7.850;2023-03-01T09:14:42;96805.25;;;-0.06;100.00
32761;BME280;19126;47.472;7.850;2023-03-01T09:17:14;96803.28;;;-0.02;100.00
32761;BME280;19126;47.472;7.850;2023-03-01T09:19:52;96799.75;;;-0.01;100.00
32761;BME280;19126;47.472;7.850;2023-03-01T09:22:21;96797.19;;;-0.01;100.00
32761;BME280;19126;47.472;7.850;2023-03-01T09:24:49;96801.63;;;-0.03;100.00
32761;BME280;19126;47.472;7.850;2023-03-01T09:27:22;96802.34;;;-0.01;100.00
32761;BME280;19126;47.472;7.850;2023-03-01T09:29:57;96810.09;;;-0.01;100.00
32761;BME280;19126;47.472;7.850;2023-03-01T09:32:24;96791.50;;;-0.06;100.00
32761;BME280;19126;47.472;7.850;2023-03-01T09:34:55;96799.44;;;-0.09;100.00
32761;BME280;19126;47.472;7.850;2023-03-01T09:37:45;96801.44;;;0.00;100.00
32761;BME280;19126;47.472;7.850;2023-03-01T09:40:19;96795.34;;;0.01;100.00
32761;BME280;19126;47.472;7.850;2023-03-01T09:42:55;96794.81;;;-0.04;100.00
32761;BME280;19126;47.472;7.850;2023-03-01T09:45:29;96783.47;;;-0.02;100.00
32761;BME280;19126;47.472;7.850;2023-03-01T09:48:03;96782.31;;;0.03;100.00
32761;BME280;19126;47.472;7.850;2023-03-01T09:50:42;96790.06;;;0.03;100.00
32761;BME280;19126;47.472;7.850;2023-03-01T09:53:15;96791.72;;;0.04;100.00
32761;BME280;19126;47.472;7.850;2023-03-01T09:55:51;96797.72;;;0.04;100.00
32761;BME280;19126;47.472;7.850;2023-03-01T09:58:34;96788.72;;;-0.03;100.00
32761;BME280;19126;47.472;7.850;2023-03-01T10:01:18;96797.00;;;0.02;100.00
32761;BME280;19126;47.472;7.850;2023-03-01T10:06:51;96787.19;;;0.07;100.00
32761;BME280;19126;47.472;7.850;2023-03-01T10:09:23;96786.75;;;0.13;100.00
32761;BME280;19126;47.472;7.850;2023-03-01T10:11:53;96791.94;;;0.13;100.00
32761;BME280;19126;47.472;7.850;2023-03-01T10:14:30;96786.84;;;0.12;100.00
32761;BME280;19126;47.472;7.850;2023-03-01T10:17:06;96787.56;;;0.14;100.00
32761;BME280;19126;47.472;7.850;2023-03-01T10:19:43;96781.28;;;0.18;100.00
32761;BME280;19126;47.472;7.850;2023-03-01T10:22:20;96775.59;;;0.13;100.00
32761;BME280;19126;47.472;7.850;2023-03-01T10:25:02;96760.31;;;0.10;100.00
32761;BME280;19126;47.472;7.850;2023-03-01T10:27:34;96777.97;;;0.16;100.00
32761;BME280;19126;47.472;7.850;2023-03-01T10:30:09;96782.72;;;0.22;100.00
32761;BME280;19126;47.472;7.850;2023-03-01T10:32:44;96766.28;;;0.23;100.00
32761;BME280;19126;47.472;7.850;2023-03-01T10:35:24;96772.59;;;0.19;100.00
32761;BME280;19126;47.472;7.850;2023-03-01T10:38:04;96772.38;;;0.22;100.00
32761;BME280;19126;47.472;7.850;2023-03-01T10:40:56;96776.91;;;0.32;100.00
32761;BME280;19126;47.472;7.850;2023-03-01T10:43:32;96771.34;;;0.25;100.00
32761;BME280;19126;47.472;7.850;2023-03-01T10:46:26;96765.84;;;0.29;100.00
32761;BME280;19126;47.472;7.850;2023-03-01T10:49:12;96766.56;;;0.32;100.00
32761;BME280;19126;47.472;7.850;2023-03-01T10:51:40;96752.84;;;0.31;100.00
32761;BME280;19126;47.472;7.850;2023-03-01T10:54:20;96756.03;;;0.35;100.00
32761;BME280;19126;47.472;7.850;2023-03-01T10:56:52;96766.06;;;0.39;100.00
32761;BME280;19126;47.472;7.850;2023-03-01T10:59:26;96753.94;;;0.40;100.00
32761;BME280;19126;47.472;7.850;2023-03-01T11:02:16;96755.94;;;0.36;100.00
32761;BME280;19126;47.472;7.850;2023-03-01T11:05:17;96761.91;;;0.37;100.00
32761;BME280;19126;47.472;7.850;2023-03-01T11:07:47;96744.53;;;0.39;100.00
32761;BME280;19126;47.472;7.850;2023-03-01T11:10:22;96753.94;;;0.40;100.00
32761;BME280;19126;47.472;7.850;2023-03-01T11:12:52;96753.84;;;0.41;100.00
32761;BME280;19126;47.472;7.850;2023-03-01T11:15:23;96742.06;;;0.37;100.00
32761;BME280;19126;47.472;7.850;2023-03-01T11:17:53;96750.72;;;0.49;100.00
32761;BME280;19126;47.472;7.850;2023-03-01T11:20:25;96741.53;;;0.45;100.00
32761;BME280;19126;47.472;7.850;2023-03-01T11:22:58;96740.72;;;0.45;100.00
32761;BME280;19126;47.472;7.850;2023-03-01T11:25:34;96740.59;;;0.46;100.00
32761;BME280;19126;47.472;7.850;2023-03-01T11:28:06;96742.38;;;0.46;100.00
32761;BME280;19126;47.472;7.850;2023-03-01T11:30:43;96728.72;;;0.43;100.00
32761;BME280;19126;47.472;7.850;2023-03-01T11:33:19;96741.22;;;0.50;100.00
32761;BME280;19126;47.472;7.850;2023-03-01T11:35:53;96726.63;;;0.49;100.00
32761;BME280;19126;47.472;7.850;2023-03-01T11:38:27;96742.31;;;0.58;100.00
32761;BME280;19126;47.472;7.850;2023-03-01T11:40:59;96734.47;;;0.60;100.00
32761;BME280;19126;47.472;7.850;2023-03-01T11:43:41;96744.47;;;0.65;100.00
32761;BME280;19126;47.472;7.850;2023-03-01T11:46:43;96744.47;;;0.65;100.00
32761;BME280;19126;47.472;7.850;2023-03-01T11:49:45;96729.59;;;0.55;99.56
32761;BME280;19126;47.472;7.850;2023-03-01T11:52:21;96726.56;;;0.62;99.64
32761;BME280;19126;47.472;7.850;2023-03-01T11:55:07;96719.03;;;0.58;100.00
32761;BME280;19126;47.472;7.850;2023-03-01T11:58:04;96715.88;;;0.55;99.88
32761;BME280;19126;47.472;7.850;2023-03-01T12:00:51;96724.34;;;0.57;98.82
32761;BME280;19126;47.472;7.850;2023-03-01T12:03:32;96718.00;;;0.61;99.04
32761;BME280;19126;47.472;7.850;2023-03-01T12:06:27;96715.22;;;0.64;99.33
32761;BME280;19126;47.472;7.850;2023-03-01T12:09:12;96709.81;;;0.67;99.62
32761;BME280;19126;47.472;7.850;2023-03-01T12:11:56;96700.50;;;0.65;98.73
32761;BME280;19126;47.472;7.850;2023-03-01T12:14:39;96699.56;;;0.66;98.75
32761;BME280;19126;47.472;7.850;2023-03-01T12:17:31;96700.19;;;0.69;99.29
32761;BME280;19126;47.472;7.850;2023-03-01T12:20:11;96703.59;;;0.70;98.65
32761;BME280;19126;47.472;7.850;2023-03-01T12:22:49;96693.16;;;0.71;98.60
32761;BME280;19126;47.472;7.850;2023-03-01T12:25:29;96694.34;;;0.79;99.13
32761;BME280;19126;47.472;7.850;2023-03-01T12:28:22;96699.41;;;0.80;98.04
32761;BME280;19126;47.472;7.850;2023-03-01T12:34:01;96693.16;;;0.71;96.82
32761;BME280;19126;47.472;7.850;2023-03-01T12:36:51;96686.91;;;0.74;97.35
32761;BME280;19126;47.472;7.850;2023-03-01T12:39:29;96689.69;;;0.84;98.04
32761;BME280;19126;47.472;7.850;2023-03-01T12:42:09;96679.06;;;0.76;96.86
32761;BME280;19126;47.472;7.850;2023-03-01T12:44:49;96676.56;;;0.74;96.27
32761;BME280;19126;47.472;7.850;2023-03-01T12:47:29;96681.97;;;0.71;96.24
32761;BME280;19126;47.472;7.850;2023-03-01T12:50:01;96664.66;;;0.60;95.90
32761;BME280;19126;47.472;7.850;2023-03-01T12:52:33;96669.97;;;0.70;95.92
32761;BME280;19126;47.472;7.850;2023-03-01T12:55:05;96670.91;;;0.69;95.90
32761;BME280;19126;47.472;7.850;2023-03-01T12:57:34;96671.41;;;0.74;95.94
32761;BME280;19126;47.472;7.850;2023-03-01T13:00:17;96673.31;;;0.83;95.54
32761;BME280;19126;47.472;7.850;2023-03-01T13:02:52;96667.91;;;0.86;95.34
32761;BME280;19126;47.472;7.850;2023-03-01T13:05:33;96673.72;;;0.90;94.94
32761;BME280;19126;47.472;7.850;2023-03-01T13:08:13;96663.00;;;0.95;95.37
32761;BME280;19126;47.472;7.850;2023-03-01T13:10:46;96665.72;;;0.93;95.89
32761;BME280;19126;47.472;7.850;2023-03-01T13:13:21;96667.03;;;0.99;95.79
32761;BME280;19126;47.472;7.850;2023-03-01T13:15:52;96666.22;;;0.98;95.23
32761;BME280;19126;47.472;7.850;2023-03-01T13:18:30;96661.63;;;1.02;95.34
32761;BME280;19126;47.472;7.850;2023-03-01T13:21:05;96664.09;;;1.04;95.07
32761;BME280;19126;47.472;7.850;2023-03-01T13:23:41;96670.94;;;1.05;94.17
32761;BME280;19126;47.472;7.850;2023-03-01T13:26:15;96680.91;;;1.09;94.45
32761;BME280;19126;47.472;7.850;2023-03-01T13:28:53;96669.88;;;1.07;94.80
32761;BME280;19126;47.472;7.850;2023-03-01T13:34:49;96682.34;;;1.13;93.06
32761;BME280;19126;47.472;7.850;2023-03-01T13:37:25;96670.56;;;1.09;93.37
32761;BME280;19126;47.472;7.850;2023-03-01T13:40:56;96676.38;;;1.13;93.30
32761;BME280;19126;47.472;7.850;2023-03-01T13:42:58;96670.72;;;1.08;93.04
32761;BME280;19126;47.472;7.850;2023-03-01T13:45:46;96668.34;;;1.05;92.96
32761;BME280;19126;47.472;7.850;2023-03-01T13:48:22;96651.44;;;1.12;93.06
32761;BME280;19126;47.472;7.850;2023-03-01T13:50:53;96657.53;;;1.11;92.77